createdAt,value
2023-05-10T00:00:16.477Z,328.0769230769231
2023-05-10T00:18:05.196Z,316.0903010033445
2023-05-10T00:24:27.970Z,302.2341137123746
2023-05-10T00:30:50.144Z,313.31772575250835
2023-05-10T00:37:11.954Z,298.7859531772575
2023-05-10T00:43:33.541Z,321.2140468227425
2023-05-10T00:49:55.485Z,332.2006688963211
2023-05-10T00:56:16.627Z,333.2006688963211
2023-05-10T01:02:38.092Z,330.6588628762542
2023-05-10T01:08:58.935Z,327.24080267558526
2023-05-10T01:15:22.688Z,336.44147157190633
2023-05-10T01:21:42.975Z,353.67892976588627
2023-05-10T01:28:04.046Z,347.561872909699
2023-05-10T01:40:36.053Z,349.19397993311037
2023-05-10T01:46:57.641Z,333.17725752508363
2023-05-10T01:53:18.775Z,353.2876254180602
2023-05-10T01:59:40.710Z,357.190635451505
2023-05-10T02:06:03.219Z,365.0535117056856
2023-05-10T02:12:29.519Z,370.5819397993311
2023-05-10T02:18:51.439Z,381.2943143812709
2023-05-10T02:25:16.277Z,386.2842809364549
2023-05-10T02:31:37.618Z,393.95986622073576
2023-05-10T02:44:36.826Z,378.5685618729097
2023-05-10T02:50:59.869Z,400.9264214046823
2023-05-10T02:57:22.646Z,403.83277591973246
2023-05-10T03:03:45.904Z,408.4214046822743
2023-05-10T03:13:56.159Z,430.15384615384613
2023-05-10T03:20:18.982Z,403.32107023411373
2023-05-10T03:26:39.954Z,417.04347826086956
2023-05-10T03:33:01.203Z,433.9397993311037
2023-05-10T03:39:23.828Z,421.8829431438127
2023-05-10T03:49:40.873Z,446.2274247491639
2023-05-10T03:59:29.569Z,457.74247491638795
2023-05-10T04:05:54.439Z,481.04682274247494
2023-05-10T04:13:19.683Z,478.84615384615387
2023-05-10T04:19:43.401Z,506.505016722408
2023-05-10T04:26:07.346Z,478.0869565217391
2023-05-10T04:33:23.344Z,486.1170568561873
2023-05-10T04:39:44.592Z,499.09364548494983
2023-05-10T04:46:06.299Z,504.38127090301003
2023-05-10T04:52:27.781Z,518.7324414715719
2023-05-10T04:58:48.856Z,531.2642140468228
2023-05-10T05:11:51.684Z,548.2341137123746
2023-05-10T05:19:58.028Z,587.2307692307693
2023-05-10T05:30:53.777Z,565.989966555184
2023-05-10T05:37:15.169Z,564.3678929765887
2023-05-10T05:46:20.534Z,578.5317725752508
2023-05-10T05:52:44.820Z,569.989966555184
2023-05-10T06:00:13.649Z,589.85618729097
2023-05-10T06:06:36.219Z,616.7224080267558
2023-05-10T06:12:57.285Z,613.1070234113712
2023-05-10T06:24:51.231Z,620.0635451505017
2023-05-10T06:31:12.027Z,608.5886287625418
2023-05-10T06:37:33.614Z,625.8428093645485
2023-05-10T06:51:27.046Z,670.0802675585285
2023-05-10T06:58:21.562Z,657.4113712374582
2023-05-10T07:04:42.841Z,619.438127090301
2023-05-10T07:11:03.123Z,603.2107023411371
2023-05-10T07:27:24.243Z,652.0735785953177
2023-05-10T07:33:44.994Z,662.7224080267558
2023-05-10T07:41:30.666Z,664.9197324414715
2023-05-10T07:47:51.512Z,668.5685618729098
2023-05-10T07:56:24.376Z,682.1505016722408
2023-05-10T08:05:36.721Z,595.1638795986622
2023-05-10T08:21:28.349Z,281.03344481605353
2023-05-10T08:31:28.886Z,177.26421404682273
2023-05-10T08:37:49.927Z,185.33110367892976
2023-05-10T08:44:11.918Z,207.41471571906354
2023-05-10T08:51:35.141Z,262.58528428093643
2023-05-10T08:57:56.455Z,312.47157190635454
2023-05-10T09:04:18.326Z,285.72909698996654
2023-05-10T09:10:40.604Z,207.12040133779263
2023-05-10T09:17:02.438Z,162.88628762541805
2023-05-10T09:23:24.481Z,134.08361204013377
2023-05-10T09:29:45.941Z,125.83946488294315
2023-05-10T09:42:05.791Z,254.35785953177256
2023-05-10T09:48:28.145Z,299.33779264214047
2023-05-10T09:59:10.346Z,260.96321070234114
2023-05-10T10:05:33.915Z,247.49163879598663
2023-05-10T10:11:56.763Z,248.5819397993311
2023-05-10T10:18:19.451Z,244.79598662207357
2023-05-10T10:30:38.881Z,148.32441471571906
2023-05-10T10:37:00.504Z,156.0133779264214
2023-05-10T10:43:23.961Z,165.30100334448161
2023-05-10T10:49:45.986Z,171.5953177257525
2023-05-10T10:56:38.150Z,177.32441471571906
2023-05-10T11:03:00.716Z,183.69565217391303
2023-05-10T11:09:23.145Z,170.6020066889632
2023-05-10T11:15:44.878Z,172.19397993311037
2023-05-10T11:22:07.175Z,174.51505016722408
2023-05-10T11:34:24.445Z,158.77926421404683
2023-05-10T11:40:46.611Z,195.1036789297659
2023-05-10T11:47:10.010Z,204.4581939799331
2023-05-10T11:53:32.008Z,193.82608695652175
2023-05-10T11:59:54.174Z,156.98327759197323
2023-05-10T12:06:16.232Z,64.7123745819398
2023-05-10T12:12:38.442Z,53.69899665551839
2023-05-10T12:19:01.503Z,55.424749163879596
2023-05-10T12:25:28.235Z,61.38795986622073
2023-05-10T12:31:56.516Z,71.96655518394648
2023-05-10T12:38:21.774Z,51.16722408026756
2023-05-10T12:45:00.455Z,51.11705685618729
2023-05-10T12:51:23.186Z,67.46822742474916
2023-05-10T13:03:10.607Z,109.31772575250837
2023-05-10T13:10:42.020Z,138.06020066889633
2023-05-10T13:19:24.118Z,202.0735785953177
2023-05-10T13:25:45.085Z,242.81270903010034
2023-05-10T13:32:07.113Z,208.2408026755853
2023-05-10T13:38:30.123Z,197.561872909699
2023-05-10T13:44:52.482Z,216.51505016722408
2023-05-10T13:51:25.190Z,229.7859531772575
2023-05-10T14:08:36.726Z,221.28428093645485
2023-05-10T14:15:03.629Z,241.89297658862876
2023-05-10T14:27:38.397Z,270.2943143812709
2023-05-10T14:34:02.132Z,282.80602006688963
2023-05-10T14:40:27.821Z,259.3344481605351
2023-05-10T14:48:09.883Z,258.03010033444815
2023-05-10T14:54:36.869Z,260.9364548494983
2023-05-10T15:01:02.250Z,262.876254180602
2023-05-10T15:07:28.728Z,245.36789297658862
2023-05-10T15:13:58.143Z,223.71571906354515
2023-05-10T15:20:31.726Z,222.88628762541805
2023-05-10T15:26:53.068Z,221.31772575250835
2023-05-10T15:33:15.195Z,256.5685618729097
2023-05-10T15:41:39.965Z,259.60869565217394
2023-05-10T15:48:01.840Z,218.90969899665552
2023-05-10T15:54:23.689Z,168.247491638796
2023-05-10T16:00:45.782Z,145.6153846153846
2023-05-10T16:07:09.305Z,122.4314381270903
2023-05-10T16:13:32.115Z,133.60535117056855
2023-05-10T16:19:55.838Z,145.79264214046822
2023-05-10T16:27:52.658Z,161.80936454849498
2023-05-10T16:39:22.104Z,152.91973244147158
2023-05-10T16:45:44.940Z,173.51505016722408
2023-05-10T16:56:44.589Z,139.42809364548495
2023-05-10T17:03:08.050Z,149.38127090301003
2023-05-10T17:09:30.387Z,160.38127090301003
2023-05-10T17:15:53.532Z,176.19732441471572
2023-05-10T17:23:32.909Z,187.54849498327758
2023-05-10T17:35:35.483Z,234.94314381270902
2023-05-10T17:41:57.752Z,247.74247491638795
2023-05-10T17:48:26.479Z,249.94314381270902
2023-05-10T18:00:06.216Z,190.44147157190636
2023-05-10T18:06:28.866Z,168.9598662207358
2023-05-10T18:12:50.811Z,210.90969899665552
2023-05-10T18:19:14.954Z,221.9264214046823
2023-05-10T18:25:37.621Z,188.67558528428094
2023-05-10T18:32:09.406Z,171.27759197324414
2023-05-10T18:38:34.963Z,162.4715719063545
2023-05-10T18:44:57.287Z,159.62876254180603
2023-05-10T18:51:19.345Z,162.83946488294313
2023-05-10T18:57:42.972Z,165.55183946488293
2023-05-10T19:04:05.861Z,173.22408026755852
2023-05-10T19:20:00.254Z,214.51170568561872
2023-05-10T19:26:20.238Z,172.26755852842808
2023-05-10T19:32:40.195Z,174.35785953177256
2023-05-10T19:39:00.873Z,206.3277591973244
2023-05-10T19:45:20.379Z,168.5953177257525
2023-05-10T19:51:44.595Z,168.438127090301
2023-05-10T19:59:39.604Z,165.35117056856188
2023-05-10T20:05:59.337Z,167.50501672240802
2023-05-10T20:20:26.995Z,183.2140468227425
2023-05-10T20:28:40.995Z,189.8428093645485
2023-05-10T20:39:41.027Z,224.66555183946488
2023-05-10T20:46:01.527Z,237.83946488294313
2023-05-10T20:52:30.055Z,267.81270903010034
2023-05-10T20:58:50.254Z,268.9966555183947
2023-05-10T21:05:15.232Z,268.6387959866221
2023-05-10T21:11:36.226Z,262.80602006688963
2023-05-10T21:17:55.334Z,281.95317725752506
2023-05-10T21:24:17.306Z,285.18060200668896
2023-05-10T21:36:34.151Z,288.2943143812709
2023-05-10T21:42:56.680Z,299.73578595317724
2023-05-10T21:51:16.222Z,296.18394648829434
2023-05-10T21:57:37.212Z,285.1505016722408
2023-05-10T22:06:52.686Z,299.95986622073576
2023-05-10T22:13:13.486Z,311.6655518394649
2023-05-10T22:19:32.332Z,336.12040133779266
2023-05-10T22:25:50.829Z,328.04682274247494
2023-05-10T22:33:29.433Z,333.1404682274248
2023-05-10T22:39:48.325Z,339.0769230769231
2023-05-10T22:46:07.627Z,334.2675585284281
2023-05-10T22:52:26.782Z,369.4849498327759
2023-05-10T22:58:45.795Z,359.9464882943144
2023-05-10T23:05:04.870Z,401.7257525083612
2023-05-10T23:15:48.876Z,418.0200668896321
2023-05-10T23:25:36.233Z,443.3444816053512
2023-05-10T23:31:55.140Z,464.25083612040135
2023-05-10T23:38:14.246Z,457.12040133779266
2023-05-10T23:44:33.568Z,480.18394648829434
2023-05-10T23:56:25.449Z,474.0133779264214
